Latest Coastal Weather Observations for King Island Airport

IDT60701

Issued at 9:41 pm EDT Wednesday 1 April 2015 (issued every 10 minutes, with the page automatically refreshed every 10 minutes)

About coastal observations | Map of coastal stations | Coastal observations for TAS | Marine services | Other Formats
Station Details ID: 098017 Name: KING ISLAND AIRPORT Lat: -39.88 Lon: 143.88 Height: 37.0 m
Data from the previous 72 hours. | See also: Recent months at King Island Airport
Date/Time
EDT
Temp

°C
Wind Pressure Rain
since 9am
mm
Weather Cloud Vis
km
Sea
Height
m
Swell
Dir
 
Speed
knots
Gust
knots
hPa Trend Height
m
Period
s
Dir
01/09:34pm 16.8 WNW 16 26 1011.3 - 0.6 - Partly cloudy 10 - - - -
01/09:30pm 16.8 WNW 14 20 1011.1 - 0.4 - Partly cloudy 10 - - - -
01/09:00pm 17.1 WNW 15 20 1011.3 - 0.2 Showers Cloudy 10 - - - -
01/08:30pm 17.8 NW 15 22 1011.3 - 0.2 - Partly cloudy 10 - - - -
01/08:00pm 18.1 NW 10 13 1010.7 - 0.2 - Cloudy 10 - - - -
01/07:30pm 17.9 NW 6 7 1009.8 - 0.2 - Partly cloudy 10 - - - -
01/07:00pm 18.4 S 3 6 1009.2 - 0.2 - Partly cloudy 10 - - - -
01/06:30pm 18.8 WSW 7 8 1010.2 - 0.2 - Partly cloudy 10 - - - -
01/06:00pm 19.6 W 7 10 1009.9 - 0.2 - Mostly cloudy 10 - - - -
01/05:30pm 20.5 WNW 13 22 1009.5 - 0.2 - - 10 - - - -
01/05:00pm 23.4 NNW 17 21 1009.1 - 0.2 - - 10 - - - -
01/04:30pm 23.9 N 13 18 1009.4 - 0.2 - - 10 - - - -
01/04:00pm 24.1 N 17 22 1009.4 - 0.2 - - 10 - - - -
01/03:30pm 24.0 N 18 23 1009.9 - 0.2 - - 10 - - - -
01/03:00pm 23.9 N 16 21 1010.5 - 0.2 - Partly cloudy 10 - - - -
01/02:30pm 23.3 N 16 21 1011.1 - 0.2 - - 10 - - - -
01/02:00pm 24.3 N 17 29 1011.8 - 0.2 - - 10 - - - -
01/01:46pm 24.8 N 17 29 1011.9 - 0.2 - - 10 - - - -
01/01:30pm 24.8 N 17 21 1012.2 - 0.2 - - 10 - - - -
01/01:00pm 24.1 N 17 25 1012.6 - 0.0 - - 10 - - - -
01/12:30pm 24.9 N 19 27 1012.9 - 0.0 - - 10 - - - -
01/12:00pm 24.7 N 18 26 1013.5 - 0.0 - Mostly cloudy 10 - - - -
01/11:54am 24.1 N 16 26 1013.6 - 0.0 - - 10 - - - -
01/11:30am 22.8 N 17 20 1014.0 - 0.0 - - 10 - - - -
01/11:00am 22.4 N 16 22 1014.4 - 0.0 - - 10 - - - -
01/10:30am 20.9 N 14 18 1014.8 - 0.0 - - 10 - - - -
01/10:00am 19.6 NNE 9 13 1015.1 - 0.0 - - 26 - - - -
01/09:30am 17.7 NE 8 11 1015.4 - 0.0 - - 10 - - - -
01/09:00am 16.6 NE 8 10 1015.7 - 0.0 - Mostly cloudy 10 - - - -
01/08:30am 16.2 NE 8 10 1015.8 - 0.0 - - 10 - - - -
01/08:00am 15.5 NE 8 12 1016.0 - 0.0 - - - - - - -
01/07:30am 15.4 ENE 7 10 1016.1 - 0.0 - - - - - - -
01/07:00am 15.1 ENE 8 10 1016.3 - 0.0 - - - - - - -
01/06:30am 15.2 ENE 8 10 1016.5 - 0.0 - - - - - - -
01/06:00am 15.2 ENE 9 12 1016.7 - 0.0 - Mostly cloudy - - - - -
01/05:30am 15.1 ENE 9 10 1017.0 - 0.0 - - - - - - -
01/05:00am 15.0 ENE 9 11 1017.2 - 0.0 - - - - - - -
01/04:30am 14.5 E 7 8 1017.7 - 0.0 - - 10 - - - -
01/04:00am 14.8 ENE 8 10 1018.2 - 0.0 - - - - - - -
01/03:30am 14.7 ENE 8 10 1018.7 - 0.0 - - - - - - -
01/03:00am 14.5 E 8 10 1019.4 - 0.0 - Partly cloudy - - - - -
01/02:30am 14.5 ENE 8 10 1019.8 - 0.0 - - - - - - -
01/02:11am 14.6 ENE 8 10 1020.2 - 0.0 - Partly cloudy - - - - -
01/02:00am 14.7 ENE 8 10 1020.2 - 0.0 - Partly cloudy - - - - -
01/01:30am 14.8 ENE 8 10 1020.6 - 0.0 - Partly cloudy - - - - -
01/01:03am 14.4 ENE 8 10 1020.9 - 0.0 - Partly cloudy - - - - -
01/01:00am 14.3 ENE 8 10 1020.9 - 0.0 - Partly cloudy - - - - -
01/12:30am 13.8 ENE 8 9 1021.4 - 0.0 - - - - - - -
01/12:00am 13.7 ENE 8 10 1021.4 - 0.0 - - - - - - -
 
Date/Time
EDT
Temp

°C
Wind Pressure Rain
since 9am
mm
Weather Cloud Vis
km
Sea
Height
m
Swell
Dir
 
Speed
knots
Gust
knots
hPa Trend Height
m
Period
s
Dir
31/11:30pm 13.4 ENE 7 9 1021.7 - 0.0 - - - - - - -
31/11:00pm 13.6 ENE 7 9 1022.1 - 0.0 - - - - - - -
31/10:30pm 13.2 ENE 7 8 1022.3 - 0.0 - - - - - - -
31/10:00pm 13.1 ENE 8 10 1022.5 - 0.0 - - - - - - -
31/09:30pm 12.0 E 6 7 1022.7 - 0.0 - - 10 - - - -
31/09:00pm 12.9 E 6 6 1022.8 - 0.0 - - 10 - - - -
31/08:30pm 12.9 NE 4 5 1022.8 - 0.0 - - 10 - - - -
31/08:00pm 14.6 CALM 0 0 1022.8 - 0.0 - - 7 - - - -
31/07:30pm 15.6 CALM 0 0 1022.8 - 0.0 - - 10 - - - -
31/07:00pm 16.9 CALM 0 0 1022.6 - 0.0 - - 10 - - - -
31/06:30pm 17.6 W 3 5 1022.6 - 0.0 - - 10 - - - -
31/06:00pm 17.6 W 5 6 1022.6 - 0.0 - - 10 - - - -
31/05:30pm 17.9 WNW 6 7 1022.6 - 0.0 - - 10 - - - -
31/05:00pm 18.7 NW 6 8 1022.7 - 0.0 - - 10 - - - -
31/04:30pm 18.1 NNW 6 10 1022.9 - 0.0 - - 10 - - - -
31/04:00pm 18.3 WNW 6 9 1023.5 - 0.0 - - 10 - - - -
31/03:30pm 18.3 WNW 7 10 1023.9 - 0.0 - - 10 - - - -
31/03:00pm 18.6 NNW 7 10 1024.1 - 0.0 - Mostly clear 10 - - - -
31/02:30pm 17.9 WNW 7 10 1024.5 - 0.0 - Partly cloudy 10 - - - -
31/02:00pm 17.5 WNW 8 10 1024.9 - 0.0 - Cloudy 10 - - - -
31/01:30pm 17.3 WNW 9 13 1025.3 - 0.0 - Cloudy 10 - - - -
31/01:00pm 17.1 WNW 9 14 1025.5 - 0.0 - Cloudy 10 - - - -
31/12:30pm 17.8 NW 9 14 1025.7 - 0.0 - Cloudy 10 - - - -
31/12:00pm 17.3 NW 10 13 1026.0 - 0.0 - Cloudy 10 - - - -
31/11:30am 17.2 NW 10 13 1026.2 - 0.0 - Cloudy 10 - - - -
31/11:00am 16.6 NNW 8 10 1026.3 - 0.0 - Cloudy 10 - - - -
31/10:30am 16.4 NW 8 9 1026.3 - 0.0 - Cloudy 10 - - - -
31/10:00am 15.7 NW 4 9 1026.3 - 0.0 - Cloudy 10 - - - -
31/09:30am 14.6 ENE 3 3 1026.4 - 0.0 - Cloudy 10 - - - -
31/09:00am 13.8 E 3 4 1026.6 - 0.0 - Cloudy 10 - - - -
31/08:30am 13.2 NE 3 3 1026.3 - 0.0 - Cloudy 10 - - - -
31/08:00am 12.8 CALM 0 0 1026.0 - 0.0 - Cloudy 10 - - - -
31/07:30am 12.7 CALM 0 2 1025.6 - 0.0 - Cloudy 10 - - - -
31/07:00am 12.8 CALM 0 0 1025.6 - 0.0 - Cloudy 10 - - - -
31/06:30am 12.8 CALM 0 0 1025.4 - 0.0 - Cloudy 10 - - - -
31/06:00am 12.6 CALM 0 0 1025.1 - 0.0 - Cloudy 10 - - - -
31/05:30am 12.8 CALM 0 0 1025.0 - 0.0 - Cloudy 10 - - - -
31/05:00am 14.2 W 4 5 1025.1 - 0.0 - Cloudy 10 - - - -
31/04:30am 13.5 W 6 7 1025.2 - 0.0 - Partly cloudy 10 - - - -
31/04:00am 12.8 W 5 7 1025.3 - 0.0 - Partly cloudy 10 - - - -
31/03:30am 12.6 WSW 5 6 1025.4 - 0.0 - - 10 - - - -
31/03:00am 13.4 W 7 8 1025.5 - 0.0 - Mostly clear 10 - - - -
31/02:30am 13.7 W 6 8 1025.5 - 0.0 - - 10 - - - -
31/02:16am 13.8 NW 1 6 1025.5 - 0.0 - Partly cloudy 10 - - - -
31/02:00am 12.8 CALM 0 0 1025.6 - 0.0 - Partly cloudy 10 - - - -
31/01:58am 12.8 CALM 0 0 1025.6 - 0.0 - Partly cloudy 10 - - - -
31/01:30am 12.1 CALM 0 0 1025.5 - 0.0 - Partly cloudy 10 - - - -
31/01:00am 13.9 W 6 6 1025.7 - 0.0 - - 10 - - - -
31/12:30am 14.2 W 5 6 1025.8 - 0.0 - Partly cloudy 10 - - - -
31/12:00am 15.0 W 4 5 1025.8 - 0.0 - Cloudy 10 - - - -
 
Date/Time
EDT
Temp

°C
Wind Pressure Rain
since 9am
mm
Weather Cloud Vis
km
Sea
Height
m
Swell
Dir
 
Speed
knots
Gust
knots
hPa Trend Height
m
Period
s
Dir
30/11:30pm 14.9 W 4 5 1026.0 - 0.0 - Cloudy 10 - - - -
30/11:00pm 14.5 WSW 5 6 1026.0 - 0.0 - Partly cloudy 10 - - - -
30/10:55pm 14.6 WSW 6 7 1026.0 - 0.0 - Partly cloudy 10 - - - -
30/10:30pm 15.2 WSW 6 8 1025.9 - 0.0 - Partly cloudy 10 - - - -
30/10:00pm 15.1 W 6 7 1025.8 - 0.0 - Partly cloudy 10 - - - -
30/09:30pm 15.4 W 7 9 1025.6 - 0.0 - Partly cloudy 10 - - - -
30/09:08pm 15.7 W 9 11 1025.6 - 0.0 - Partly cloudy 10 - - - -
30/09:00pm 15.8 W 9 13 1025.6 - 0.0 - Partly cloudy 10 - - - -
30/08:30pm 16.1 WNW 11 16 1025.3 - 0.0 - Partly cloudy 10 - - - -
30/08:00pm 16.2 WNW 11 14 1025.0 - 0.0 - Partly cloudy 10 - - - -
30/07:44pm 16.3 WNW 12 17 1024.9 - 0.0 - Partly cloudy 10 - - - -
30/07:30pm 16.5 WNW 13 16 1024.8 - 0.0 - Partly cloudy 10 - - - -
30/07:00pm 16.6 WNW 12 17 1024.7 - 0.0 - Partly cloudy 10 - - - -
30/06:35pm 16.6 WNW 8 11 1024.4 - 0.0 - Partly cloudy 10 - - - -
30/06:30pm 16.6 WNW 8 10 1024.4 - 0.0 - Partly cloudy 10 - - - -
30/06:00pm 17.2 WNW 10 13 1024.3 - 0.0 - Partly cloudy 10 - - - -
30/05:30pm 16.9 WNW 9 14 1024.1 - 0.0 - Partly cloudy 10 - - - -
30/05:00pm 17.3 WNW 11 14 1023.9 - 0.0 - Partly cloudy 10 - - - -
30/04:30pm 17.0 W 10 13 1023.8 - 0.0 - Partly cloudy 10 - - - -
30/04:00pm 16.8 WSW 11 16 1023.7 - 0.0 - Partly cloudy 10 - - - -
30/03:53pm 16.5 WSW 11 16 1023.8 - 0.0 - Partly cloudy 10 - - - -
30/03:30pm 16.7 W 13 18 1023.8 - 0.0 - Partly cloudy 10 - - - -
30/03:00pm 17.0 NW 15 19 1023.9 - 0.0 Rain Cloudy 10 - - - -
30/02:30pm 17.9 NW 16 18 1023.9 - 0.0 - Partly cloudy 10 - - - -
30/02:00pm 18.1 NW 15 18 1023.8 - 0.0 - Partly cloudy 10 - - - -
30/01:30pm 17.8 NW 14 16 1024.0 - 0.0 - Cloudy 10 - - - -
30/01:00pm 18.3 NW 14 17 1024.1 - 0.0 - Partly cloudy 10 - - - -
30/12:30pm 18.6 WNW 13 16 1024.2 - 0.0 - - 10 - - - -
30/12:00pm 18.5 WNW 12 16 1024.1 - 0.0 - Partly cloudy 10 - - - -
30/11:30am 18.1 WNW 12 15 1024.2 - 0.0 - Cloudy 10 - - - -
30/11:00am 18.2 WNW 13 17 1024.2 - 0.0 - Cloudy 10 - - - -
30/10:30am 17.7 W 13 17 1024.0 - 0.0 - Cloudy 10 - - - -
30/10:04am 17.3 W 12 17 1023.8 - 0.0 - Partly cloudy 10 - - - -
30/10:00am 17.0 W 12 17 1023.8 - 0.0 - Partly cloudy 10 - - - -
30/09:30am 15.2 WSW 10 14 1023.4 - 0.0 - Partly cloudy 10 - - - -
30/09:22am 15.3 W 12 16 1023.4 - 0.0 - Partly cloudy 10 - - - -
30/09:00am 16.2 WNW 11 14 1023.1 - 0.0 - Cloudy 10 - - - -
30/08:30am 15.8 WNW 10 14 1022.9 - 0.0 - Partly cloudy 10 - - - -
30/08:00am 15.6 WNW 10 14 1022.6 - 0.0 - Partly cloudy 10 - - - -
30/07:30am 15.2 W 11 15 1022.3 - 0.0 - Partly cloudy 10 - - - -
30/07:00am 15.3 W 10 13 1022.1 - 0.0 - Partly cloudy 10 - - - -
30/06:30am 15.7 WNW 11 16 1021.7 - 0.0 - Partly cloudy 10 - - - -
30/06:00am 15.5 WNW 12 17 1021.6 - 0.0 - Cloudy 10 - - - -
30/05:30am 15.5 WNW 11 15 1021.5 - 0.0 - Partly cloudy 10 - - - -
30/05:00am 15.6 WNW 12 15 1021.4 - 0.0 - Partly cloudy 10 - - - -
30/04:56am 15.6 WNW 12 15 1021.4 - 0.0 - Partly cloudy 10 - - - -
30/04:30am 15.3 WNW 10 17 1021.4 - 0.0 - Partly cloudy 10 - - - -
30/04:19am 15.2 WNW 10 13 1021.4 - 0.0 - Partly cloudy 10 - - - -
30/04:00am 14.8 WNW 9 10 1021.5 - 0.0 - - 10 - - - -
30/03:30am 14.9 WNW 10 12 1021.7 - 0.0 - - 10 - - - -
30/03:00am 14.9 WNW 10 13 1021.8 - 0.0 - - 10 - - - -
30/02:30am 14.8 WNW 10 14 1021.9 - 0.0 - - 10 - - - -
30/02:00am 15.1 NW 9 10 1021.8 - 0.0 - - 10 - - - -
30/01:30am 15.2 NW 10 12 1021.8 - 0.0 - - 10 - - - -
30/01:00am 15.0 WNW 10 12 1021.9 - 0.0 - - 10 - - - -
30/12:30am 15.3 WNW 9 13 1022.0 - 0.0 - - 10 - - - -
30/12:00am 15.4 WNW 9 11 1022.1 - 0.0 - Mostly clear 10 - - - -
 
Date/Time
EDT
Temp

°C
Wind Pressure Rain
since 9am
mm
Weather Cloud Vis
km
Sea
Height
m
Swell
Dir
 
Speed
knots
Gust
knots
hPa Trend Height
m
Period
s
Dir
29/11:30pm 15.6 WNW 11 14 1022.3 - 0.0 - Partly cloudy 10 - - - -
29/11:00pm 15.3 WNW 11 15 1022.5 - 0.0 - - 10 - - - -
29/10:30pm 15.4 WNW 11 15 1022.5 - 0.0 - Partly cloudy 10 - - - -
29/10:00pm 15.6 WNW 12 16 1022.5 - 0.0 - Partly cloudy 10 - - - -

Other Formats:

Comma delimited format used in spreadsheet applications
http://www.bom.gov.au/fwo/IDT60701/IDT60701.94850.axf

JavaScript Object Notation format (JSON) in row-major order
http://www.bom.gov.au/fwo/IDT60701/IDT60701.94850.json